Lithopolis, OH (43136)

5:36 AM EDT on March 29, 2017 (GMT -0400)
Hawks Nest | | Change Station

Elev 833 ft 39.82 °N, 82.80 °W | Updated 4 seconds ago

Overcast
Overcast
40.5 °F
Feels Like 40 °F
N
3.0
Wind Variable Wind from ENE
Gusts 6.0 mph

Today
High -- | Low -- °F
--% Chance of Precip.
Yesterday
High -- | Low -- °F
Precip. -- in
Pressure 30.17 in
Visibility 10.0 miles
Clouds Mostly Cloudy 1500 ft
Overcast 2000 ft
Windchill 40 °F
Dew Point 38 °F
Humidity 91%
Rainfall 0.00 in
Snow Depth Not available.
7:19 AM 7:52 PM
New Moon, 2% visible
METAR KLCK 290915Z AUTO 05009KT 10SM BKN015 OVC020 04/02 A3017 RMK AO2 T00420023
Pressure 30.17 in
Visibility 10.0 miles
Clouds Mostly Cloudy 1500 ft
Overcast 2000 ft
Windchill 40 °F
Dew Point 38 °F
Humidity 91%
Rainfall 0.00 in
Snow Depth Not available.
7:19 AM 7:52 PM
New Moon, 2% visible
METAR KLCK 290915Z AUTO 05009KT 10SM BKN015 OVC020 04/02 A3017 RMK AO2 T00420023

Get Severe Weather Alerts

Thanks for signing up!

Be on the lookout for a verification email in your inbox.

You'll start receiving the daily forecast at 8 AM.

×

10-Day Weather Forecast

Almanac

Astronomy

Mar. 29, 2017 Rise Set
Actual Time
Civil Twilight
Nautical Twilight
Astronomical Twilight
Moon
Length of Visible Light
Length of Day
Tomorrow will be .
, % of the Moon is Illuminated

Today's Extremes

State Highs State Lows

Community

WunderPhotos

Upload Photos

1,962,540 photos uploaded!

WunderBlog® & News

Nearby

Air Quality

  Air Quality AQ Index Pollutant
Not available.

Snow Depth

Station Depth Elevation

Earthquake Activity

City Distance Mag. Time & Date
Minimum magnitude displayed is 2.5.

Earthquake Activity

City Distance Mag. Time & Date
Minimum magnitude displayed is 2.5.

Coastal Water Temperatures

Place Temperature

Stations

Nearby Weather Stations

Station Location Temp. Windchill Dew Point Humidity Wind Precip. Elev Updated Type
                   

Watches & Warnings

There are currently no watches in effect.